Portada
METAR-TAF:

METAR-TAF

Aeroports :

Antsiranana, Madagascar

latitud: 12-21S, longitud: 049-18E, altitud: 114 m

Observació

L'informe es va fer fa 10 hores i 54 minuts, a les 15:00 UTC
Vent 6 kt del Sud-Est
Temperatura 26°C
Humitat 74%
Pressió 1013 hPa
Visibilitat 10 km o més
Escasses núvols a una alçada de 2000 ft

METAR: FMNA 231500Z 14006KT 9999 FEW020 26/21 Q1013

Hora: 04:54 (01:54 UTC)

Pronòstic

L'informe es va fer fa 2 hores i 54 minuts, a les 23:00 UTC
Pronòstic vàlid del 24 a les 00 UTC al 24 a les 24 UTC
Vent 10 kt del Sud-Est
Visibilitat 10 km o més
Núvols disperses a una alçada de 2000 ft

TAF: FMNA 232300Z 2400/2424 14010KT 9999 SCT020

Observacions i pronòstics meteorològics de més de 4000 aeroports (METAR i TAF).

Les estacions disponibles són els punts grocs i vermells al mapa.

Posi el ratolí al punt desitjat per veure el nom de l'estació.

Feu clic per veure les observacions i els pronòstics meteorològics.

Per canviar el mapa: feu clic els botons verds amb una creu de color negre per apropar; al botó verd amb un guió per allunyar la imatge; o en les fletxes verdes per a mapes adjacents.


METAR-TAF: